Tiempo atmosférico en la estación meteorológica de Aguilar De Campoo, Palencia (910 m.)



Fecha
DESCASC
Temp. máxima en grados centígrados (hora)
DESCASC
Temp. mínima en grados centígrados (hora)
DESCASC
Temp. media en grados centígrados
DESCASC
Racha de viento máxima en m/sg (hora)
DESCASC
Velocidad máxima media en intervalos de 10 minutos(hora)
DESCASC
Precipitaciones diarias en mm
DESCASC
Precipitaciones de 00:00 a 06:00 en mm
DESCASC
Precipitaciones de 06:00 a 12:00 en mm
DESCASC
Precipitaciones de 12:00 a 18:00 en mm
DESCASC
Precipitaciones de 18:00 a 24:00 en mm
DESCASC
18-01-2018 9.9 (16:30) -3.6 (07:40) 3.1 4.72 (12:00) 3.06 (09:20) 0 0 0 0 0
17-01-2018 9.4 (16:10) -1.4 (23:59) 4 5.56 (00:10) 3.33 (18:00) 0 0 0 0 0
16-01-2018 11.2 (17:20) 2.1 (09:40) 6.6 7.22 (14:50) 4.44 (14:40) 0 0 0 0 0
15-01-2018 2.3 (23:50) -4.2 (07:30) -0.9 6.94 (15:10) 3.89 (20:00) 0 0 0 0 0
14-01-2018 -0.2 (00:00) -2.4 (-00:0) -1.3 3.61 (17:30) 2.5 (17:30) 0 0 0 0 0
13-01-2018 0.9 (00:40) -1.1 (-00:0) -0.1 5.83 (02:40) 3.89 (02:30) 5.6 0 0.8 4.2 0.6
12-01-2018 1 (00:00) -4.7 (-00:0) -1.8 5.83 (19:50) 3.89 (15:00) 0 0 0 0 0
11-01-2018 8.1 (16:20) -1.9 (-00:0) 3.1 10.28 (14:20) 6.39 (14:30) 0 0 0 0 0
10-01-2018 5.4 (15:50) 0.2 (00:00) 2.8 11.11 (16:40) 6.39 (16:50) 1.4 0 0 1.4 0
09-01-2018 0.6 (16:20) -2.1 (-00:0) -0.7 8.06 (06:20) 5 (06:30) 2 0 0 1.2 0.8
08-01-2018 7.6 (16:00) -3.2 (-00:0) 2.2 6.11 (14:30) 3.61 (14:00) 0 0 0 0 0
07-01-2018 6 (13:00) -1.6 (-00:0) 2.2 13.61 (00:40) 6.39 (00:40) 1.6 0.4 1.2 0 0
06-01-2018 2.9 (14:50) -0.1 (00:00) 1.4 12.5 (23:59) 5.56 (23:10) 0.6 0 0.6 0 0
05-01-2018 8.5 (00:00) 2.3 (00:00) 5.4 13.61 (05:20) 6.67 (04:50) 2.2 0 2.2 0 0
04-01-2018 13.2 (15:00) 8.2 (21:40) 10.7 12.22 (10:50) 8.33 (10:50) 0 0 0 0 0
03-01-2018 14.1 (16:30) 9.6 (00:00) 11.9 10.83 (12:20) 5.83 (12:20) 0 0 0 0 0
02-01-2018 10.9 (21:30) 5.6 (00:00) 8.2 10.83 (16:20) 6.94 (16:20) 1 0 0.8 0.2 0
01-01-2018 10.1 (16:50) -0.1 (00:00) 5 11.67 (12:50) 7.22 (15:40) 0.4 0 0 0.2 0.2
31-12-2017 8 (11:00) 1.7 (00:00) 4.9 13.89 (16:20) 7.78 (16:20) 0.4 0 0 0.4 0
30-12-2017 11.7 (15:50) 7.5 (00:00) 9.6 10.83 (13:00) 6.11 (02:50) 0 0 0 0 0
29-12-2017 11.2 (15:40) -0.9 (-00:0) 5.1 8.89 (23:50) 5.56 (23:50) 0 0 0 0 0
28-12-2017 11.9 (15:20) -1.1 (-00:0) 5.4 5.28 (17:10) 3.06 (18:20) 0 0 0 0 0
27-12-2017 6.1 (14:00) 0.4 (00:00) 3.2 12.78 (04:30) 8.61 (02:30) 2.6 2.6 0 0 0
26-12-2017 5.6 (22:40) -1.3 (-00:0) 2.1 12.78 (23:10) 6.39 (23:59) 6.4 0 0 1.8 4.6
25-12-2017 5.9 (19:00) -5 (-00:0) 0.5 10.56 (19:40) 5 (22:20) 0.4 0 0 0 0.4
24-12-2017 11.9 (16:00) -3.6 (-00:0) 4.1 5.83 (14:40) 3.89 (14:40) 0 0 0 0 0

Gráficas

Temp. máximas Temp. mínimas Temp. medias Precipitaciones Rachas de viento máximas Velocidades máximas media en intervalos de 10 minutos

Datos horarios

Fecha y hora oficial Temperatura (ºC) Velocidad del viento (km/h) Dirección del viento Racha (km/h) Dirección de racha Precipitación (mm) Presión (hPa) Tendencia (hPa) Humedad (%)
2018-01-22 23:00:00 3.7 8 Norte 12 Norte 0 -- -- 99
2018-01-22 22:00:00 4 6 Nordeste 12 Nordeste 0 -- -- 99
2018-01-22 21:00:00 4 6 Norte 12 Norte 0 -- -- 98
2018-01-22 20:00:00 4 5 Nordeste 12 Norte 0 -- -- 97
2018-01-22 19:00:00 4.4 5 Norte 9 Norte 0 -- -- 96
2018-01-22 18:00:00 4.5 4 Noroeste 10 Noroeste 0 -- -- 95
2018-01-22 17:00:00 4.7 3 Noroeste 8 Oeste 0 -- -- 94
2018-01-22 16:00:00 4.6 3 Norte 10 Noroeste 0 -- -- 94
2018-01-22 15:00:00 4.4 5 Noroeste 12 Oeste 0 -- -- 94
2018-01-22 14:00:00 4 5 Oeste 12 Norte 0 -- -- 98
2018-01-22 13:00:00 3.7 6 Noroeste 15 Oeste 0 -- -- 100
2018-01-22 12:00:00 3.6 8 Oeste 14 Oeste 0 -- -- 100
2018-01-22 11:00:00 3.4 5 Oeste 9 Oeste 0 -- -- 100
2018-01-22 10:00:00 3.2 3 Norte 8 Este 0 -- -- 100
2018-01-22 09:00:00 3.3 3 Norte 10 Nordeste 0 -- -- 100
2018-01-22 08:00:00 3.5 5 Nordeste 10 Este 0 -- -- 100
2018-01-22 07:00:00 4.1 5 Norte 11 Norte 0 -- -- 100
2018-01-22 06:00:00 4.2 6 Norte 11 Norte 0 -- -- 99
2018-01-22 05:00:00 4.7 4 Nordeste 10 Noroeste 0 -- -- 99
2018-01-22 04:00:00 5 5 Oeste 10 Oeste 0 -- -- 99
2018-01-22 03:00:00 5.4 4 Noroeste 10 Noroeste 0 -- -- 99
2018-01-22 02:00:00 5.7 4 Noroeste 9 Norte 0 -- -- 99
2018-01-22 01:00:00 6 5 Norte 13 Norte 0 -- -- 98
2018-01-22 00:00:00 6.3 4 Norte 12 Noroeste 0 -- -- 98
2018-01-21 23:00:00 6.8 6 Noroeste 13 Noroeste 0 -- -- 97
2018-01-21 22:00:00 7.3 6 Noroeste 14 Oeste 0 -- -- 96
2018-01-21 21:00:00 7.6 2 Noroeste 6 Noroeste 0 -- -- 95
2018-01-21 20:00:00 7.9 2 Noroeste 10 Norte 0 -- -- 95
2018-01-21 19:00:00 8.3 5 Norte 11 Norte 0 -- -- 95
2018-01-21 18:00:00 8.1 3 Norte 6 Noroeste 0 -- -- 94
2018-01-21 17:00:00 8.8 3 Sudoeste 12 Oeste 0 -- -- 92
2018-01-21 16:00:00 9 7 Oeste 16 Noroeste 0 -- -- 88
2018-01-21 15:00:00 10.4 9 Oeste 18 Oeste 0 -- -- 82
2018-01-21 14:00:00 10.3 10 Noroeste 22 Noroeste 0 -- -- 81
2018-01-21 13:00:00 9.1 8 Sudoeste 17 Oeste 0 -- -- 85
2018-01-21 12:00:00 8.4 4 Sudoeste 9 Oeste 0 -- -- 91
2018-01-21 11:00:00 5.3 4 Sudoeste 8 Sudoeste 0 -- -- 99
2018-01-21 10:00:00 3.7 0 Calma 6 Este 0 -- -- 100
2018-01-21 09:00:00 2.9 0 Calma 5 Sudeste 0 -- -- 98
2018-01-21 08:00:00 3.4 3 Este 9 Sudeste 0 -- -- 99
2018-01-21 07:00:00 3.5 0 Calma 13 Este 0 -- -- 99
2018-01-21 06:00:00 3.1 2 Nordeste 9 Este 0 -- -- 99
2018-01-21 05:00:00 2.7 3 Este 12 Este 0 -- -- 99
2018-01-21 04:00:00 2.1 2 Este 12 Este 0 -- -- 99
2018-01-21 03:00:00 1.8 2 Nordeste 10 Este 0 -- -- 99
2018-01-21 02:00:00 1.8 5 Este 18 Este 0 -- -- 99
2018-01-21 01:00:00 1.1 5 Este 15 Este 0 -- -- 98
2018-01-21 00:00:00 0.5 0 Calma 7 Este 0 -- -- 97
2018-01-20 23:00:00 1.1 0 Calma 10 Este 0 -- -- 97
2018-01-20 22:00:00 1.2 3 Norte 10 Este 0 -- -- 96
2018-01-20 21:00:00 1.3 5 Este 10 Este 0 -- -- 97
2018-01-20 20:00:00 1.7 3 Nordeste 10 Este 0 -- -- 95
2018-01-20 19:00:00 2.3 3 Nordeste 7 Este 0 -- -- 93
2018-01-20 18:00:00 4.1 0 Calma 5 Este 0 -- -- 90
2018-01-20 17:00:00 5.6 3 Este 13 Este 0 -- -- 86
2018-01-20 16:00:00 6.3 5 Este 9 Este 0 -- -- 85
2018-01-20 15:00:00 5.4 0 Calma 13 Oeste 0 -- -- 88
2018-01-20 14:00:00 4.6 7 Oeste 15 Oeste 0 -- -- 88
2018-01-20 13:00:00 3.5 8 Noroeste 20 Noroeste 0 -- -- 87
2018-01-20 12:00:00 3.6 9 Noroeste 17 Oeste 0 -- -- 90
2018-01-20 11:00:00 1.6 5 Sudoeste 9 Oeste 0 -- -- 100
2018-01-20 10:00:00 -0.7 3 Sur 9 Sur 0 -- -- 100
2018-01-20 09:00:00 -1.9 4 Sur 14 Este 0 -- -- 100
2018-01-20 08:00:00 -1.6 8 Este 15 Este 0 -- -- 99
2018-01-20 07:00:00 -0.3 2 Sudoeste 10 Sur 0 -- -- 99
2018-01-20 06:00:00 -1.5 4 Sudeste 8 Este 0 -- -- 99
2018-01-20 05:00:00 -1.1 0 Calma 8 Sudeste 0 -- -- 99
2018-01-20 04:00:00 -0.8 2 Sudoeste 10 Oeste 0 -- -- 99
2018-01-20 03:00:00 -0.8 3 Noroeste 8 Noroeste 0 -- -- 97
2018-01-20 02:00:00 -0.4 0 Calma 3 Este 0 -- -- 96
2018-01-20 01:00:00 0.8 0 Calma 4 Nordeste 0 -- -- 95
2018-01-20 00:00:00 1.1 2 Este 12 Este 0 -- -- 95
2018-01-19 23:00:00 0.7 8 Este 12 Este 0 -- -- 97
2018-01-19 22:00:00 0.3 0 Calma 9 Este 0 -- -- 94
2018-01-19 21:00:00 1.2 2 Este 5 Este 0 -- -- 93
2018-01-19 20:00:00 2.9 0 Calma 12 Sur 0 -- -- 88
2018-01-19 19:00:00 5 5 Sur 17 Sur 0 -- -- 84
2018-01-19 18:00:00 6.6 8 Sur 18 Sur 0 -- -- 80
2018-01-19 17:00:00 7.6 10 Sur 19 Sur 0 -- -- 79
2018-01-19 16:00:00 8.2 12 Sur 22 Sur 0 -- -- 82
2018-01-19 15:00:00 9.4 12 Sur 24 Sur 0 -- -- 79
2018-01-19 14:00:00 8.7 8 Sudoeste 12 Oeste 0 -- -- 82
2018-01-19 13:00:00 5.5 4 Sudoeste 8 Sur 0 -- -- 93
2018-01-19 12:00:00 2.9 6 Sur 9 Sur 0 -- -- 98
2018-01-19 11:00:00 1.4 0 Calma 8 Noroeste 0 -- -- 98
2018-01-19 10:00:00 -1.5 0 Calma 12 Este 0 -- -- 100
2018-01-19 09:00:00 -3.5 2 Sudeste 8 Sudeste 0 -- -- 99
2018-01-19 08:00:00 -3 6 Este 12 Este 0 -- -- 100
2018-01-19 07:00:00 -2.1 2 Este 5 Este 0 -- -- 100
2018-01-19 06:00:00 -2.1 4 Este 8 Este 0 -- -- 100
2018-01-19 05:00:00 -1.1 0 Calma 3 Sudeste 0 -- -- 100
2018-01-19 04:00:00 -0.7 2 Nordeste 6 Este 0 -- -- 100
2018-01-19 03:00:00 0.1 2 Nordeste 13 Este 0 -- -- 100
2018-01-19 02:00:00 0.9 8 Este 12 Este 0 -- -- 99
2018-01-19 01:00:00 1.8 0 Calma 10 Este 0 -- -- 99
2018-01-19 00:00:00 1.3 9 Este 14 Sudeste 0 -- -- 97
2018-01-18 23:00:00 2.9 0 Calma 9 Sudoeste 0 -- -- 98
2018-01-18 22:00:00 2.7 6 Sur 15 Sudeste 0 -- -- 98
2018-01-18 21:00:00 0.7 0 Calma 10 Este 0 -- -- 92
2018-01-18 20:00:00 3 6 Este 11 Este 0 -- -- 92
2018-01-18 19:00:00 4.2 0 Calma 4 Noroeste 0 -- -- 86
2018-01-18 18:00:00 7 3 Norte 9 Noroeste 0 -- -- 78
2018-01-18 17:00:00 9.8 4 Sudoeste 12 Oeste 0 -- -- 70
2018-01-18 16:00:00 9.6 8 Oeste 13 Sudoeste 0 -- -- 70
2018-01-18 15:00:00 8.5 9 Oeste 16 Oeste 0 -- -- 74
2018-01-18 14:00:00 7.6 9 Oeste 15 Oeste 0 -- -- 76
2018-01-18 13:00:00 5.7 6 Norte 16 Noroeste 0 -- -- 82
2018-01-18 12:00:00 4.1 11 Noroeste 17 Oeste 0 -- -- 87
2018-01-18 11:00:00 1.5 6 Norte 9 Noroeste 0 -- -- 94
2018-01-18 10:00:00 -1.8 3 Sudeste 17 Este 0 -- -- 96
2018-01-18 09:00:00 -3.4 5 Este 12 Este 0 -- -- 97
2018-01-18 08:00:00 -3.5 3 Este 14 Este 0 -- -- 97
2018-01-18 07:00:00 -3.2 10 Este 17 Este 0 -- -- 97
2018-01-18 06:00:00 -3.3 0 Calma 8 Sudeste 0 -- -- 97
2018-01-18 05:00:00 -2.8 8 Sudeste 14 Este 0 -- -- 97
2018-01-18 04:00:00 -2.3 3 Este 12 Sudeste 0 -- -- 98
2018-01-18 03:00:00 -2.4 2 Este 7 Este 0 -- -- 97
2018-01-18 02:00:00 -1.6 3 Este 6 Este 0 -- -- 97
2018-01-18 01:00:00 -1 3 Sudeste 8 Sudeste 0 -- -- 97
2018-01-18 00:00:00 -1.4 3 Este 7 Sudeste 0 -- -- 96
2018-01-17 23:00:00 -0.7 5 Este 8 Este 0 -- -- 96
2018-01-17 22:00:00 -0.3 0 Calma 3 Noroeste 0 -- -- 94
2018-01-17 21:00:00 1.3 3 Este 7 Este 0 -- -- 93
2018-01-17 20:00:00 2.6 0 Calma 7 Sudeste 0 -- -- 90
2018-01-17 19:00:00 4 6 Sudeste 17 Sur 0 -- -- 85
2018-01-17 18:00:00 6.5 12 Sur 17 Sur 0 -- -- 75
2018-01-17 17:00:00 8.6 6 Sudoeste 16 Oeste 0 -- -- 67
2018-01-17 16:00:00 9.3 7 Noroeste 12 Oeste 0 -- -- 72
2018-01-17 15:00:00 7.8 6 Oeste 12 Sudoeste 0 -- -- 77
2018-01-17 14:00:00 8.3 6 Oeste 15 Oeste 0 -- -- 75
2018-01-17 13:00:00 6.4 3 Norte 10 Norte 0 -- -- 90
2018-01-17 12:00:00 4.3 3 Norte 9 Norte 0 -- -- 99
2018-01-17 11:00:00 4 5 Norte 12 Nordeste 0 -- -- 100
2018-01-17 10:00:00 3.4 2 Norte 6 Este 0 -- -- 100
2018-01-17 09:00:00 3.1 2 Sudoeste 5 Este 0 -- -- 100
2018-01-17 08:00:00 2.9 3 Este 6 Este 0 -- -- 100
2018-01-17 07:00:00 2.5 3 Este 10 Este 0 -- -- 99
2018-01-17 06:00:00 2.9 5 Este 10 Sudeste 0 -- -- 99
2018-01-17 05:00:00 2.9 5 Este 13 Este 0 -- -- 100
2018-01-17 04:00:00 2.2 2 Nordeste 8 Sudeste 0 -- -- 99
2018-01-17 03:00:00 2.3 7 Este 13 Sudeste 0 -- -- 96
2018-01-17 02:00:00 4.1 7 Norte 11 Norte 0 -- -- 95
2018-01-17 01:00:00 5.4 5 Este 20 Este 0 -- -- 95
2018-01-17 00:00:00 6 9 Nordeste 18 Nordeste 0 -- -- 93
2018-01-16 23:00:00 3.8 3 Nordeste 9 Norte 0 -- -- 98
2018-01-16 22:00:00 4.6 6 Nordeste 15 Este 0 -- -- 96
2018-01-16 21:00:00 5.6 4 Sudeste 8 Sudeste 0 -- -- 95
2018-01-16 20:00:00 7.9 4 Este 21 Norte 0 -- -- 89
2018-01-16 19:00:00 9.3 6 Norte 17 Noroeste 0 -- -- 88
2018-01-16 18:00:00 10 6 Nordeste 16 Norte 0 -- -- 86
2018-01-16 17:00:00 11 9 Noroeste 19 Noroeste 0 -- -- 81
2018-01-16 16:00:00 10.5 11 Noroeste 23 Noroeste 0 -- -- 83
2018-01-16 15:00:00 9.4 9 Noroeste 26 Noroeste 0 -- -- 87
2018-01-16 14:00:00 8.8 10 Noroeste 21 Oeste 0 -- -- 93
2018-01-16 13:00:00 6.8 10 Noroeste 21 Norte 0 -- -- 96
2018-01-16 12:00:00 4.5 6 Norte 10 Noroeste 0 -- -- 98
2018-01-16 11:00:00 3 5 Norte 10 Norte 0 -- -- 99
2018-01-16 10:00:00 2.2 2 Este 7 Este 0 -- -- 98
2018-01-16 09:00:00 2.2 3 Norte 9 Nordeste 0 -- -- 98
2018-01-16 08:00:00 2.6 4 Norte 9 Nordeste 0 -- -- 98
2018-01-16 07:00:00 2.9 3 Este 15 Norte 0 -- -- 98
2018-01-16 06:00:00 3.4 8 Norte 13 Norte 0 -- -- 99
2018-01-16 05:00:00 3.1 6 Noroeste 18 Norte 0 -- -- 99
2018-01-16 04:00:00 3.1 9 Norte 19 Norte 0 -- -- 99
2018-01-16 03:00:00 2.8 8 Norte 16 Norte 0 -- -- 98
2018-01-16 02:00:00 2.6 5 Noroeste 20 Norte 0 -- -- 97
2018-01-16 01:00:00 2.5 4 Noroeste 22 Noroeste 0 -- -- 97
2018-01-16 00:00:00 2.3 9 Noroeste 22 Noroeste 0 -- -- 96
2018-01-15 23:00:00 1.2 6 Norte 16 Norte 0 -- -- 98
2018-01-15 22:00:00 0.6 5 Norte 17 Nordeste 0 -- -- 94
2018-01-15 21:00:00 0.8 9 Norte 19 Norte 0 -- -- 92
2018-01-15 20:00:00 0.8 14 Norte 23 Noroeste 0 -- -- 93
2018-01-15 19:00:00 0.7 8 Norte 25 Noroeste 0 -- -- 92
2018-01-15 18:00:00 1.2 9 Noroeste 20 Noroeste 0 -- -- 91
2018-01-15 17:00:00 1.9 10 Norte 24 Norte 0 -- -- 90
2018-01-15 16:00:00 1.5 9 Noroeste 25 Norte 0 -- -- 92
2018-01-15 15:00:00 1.3 13 Norte 24 Noroeste 0 -- -- 94
2018-01-15 14:00:00 0.6 9 Norte 16 Noroeste 0 -- -- 97
2018-01-15 13:00:00 -0.7 6 Norte 16 Norte 0 -- -- 100
2018-01-15 12:00:00 -1.8 11 Noroeste 19 Noroeste 0 -- -- 100
2018-01-15 11:00:00 -2.9 6 Noroeste 12 Noroeste 0 -- -- 100
2018-01-15 10:00:00 -4.2 0 Calma 11 Norte 0 -- -- 99
2018-01-15 09:00:00 -4 4 Noroeste 12 Noroeste 0 -- -- 99
2018-01-15 08:00:00 -4.2 0 Calma 4 Nordeste 0 -- -- 99
2018-01-15 07:00:00 -4.1 3 Noroeste 8 Noroeste 0 -- -- 99
2018-01-15 06:00:00 -3.3 4 Oeste 9 Norte 0 -- -- 100
2018-01-15 05:00:00 -3.4 2 Este 7 Norte 0 -- -- 100
2018-01-15 04:00:00 -3.7 3 Norte 9 Noroeste 0 -- -- 100
2018-01-15 03:00:00 -3.2 5 Oeste 9 Norte 0 -- -- 99
2018-01-15 02:00:00 -2.7 6 Norte 11 Noroeste 0 -- -- 100
2018-01-15 01:00:00 -2 4 Norte 8 Noroeste 0 -- -- 99
2018-01-15 00:00:00 -1.5 3 Nordeste 6 Noroeste 0 -- -- 99
2018-01-14 23:00:00 -1.6 3 Norte 9 Norte 0 -- -- 99
2018-01-14 22:00:00 -1.3 4 Oeste 8 Oeste 0 -- -- 99
2018-01-14 21:00:00 -1.1 3 Oeste 8 Noroeste 0 -- -- 99
2018-01-14 20:00:00 -1 6 Noroeste 10 Noroeste 0 -- -- 99
2018-01-14 19:00:00 -1 5 Noroeste 12 Noroeste 0 -- -- 99
2018-01-14 18:00:00 -1 4 Noroeste 13 Norte 0 -- -- 98
2018-01-14 17:00:00 -0.3 5 Norte 10 Noroeste 0 -- -- 98
2018-01-14 16:00:00 -0.3 4 Noroeste 12 Noroeste 0 -- -- 98
2018-01-14 15:00:00 -0.6 6 Oeste 11 Oeste 0 -- -- 99
2018-01-14 14:00:00 -0.7 4 Noroeste 12 Oeste 0 -- -- 99
2018-01-14 13:00:00 -1.3 3 Oeste 11 Este 0 -- -- 100
2018-01-14 12:00:00 -2 4 Norte 10 Norte 0 -- -- 100
2018-01-14 11:00:00 -2.2 4 Norte 9 Nordeste 0 -- -- 100
2018-01-14 10:00:00 -2.2 3 Norte 7 Nordeste 0 -- -- 100
2018-01-14 09:00:00 -2.1 3 Este 6 Sudeste 0 -- -- 100
2018-01-14 08:00:00 -2.1 2 Este 9 Norte 0 -- -- 100
2018-01-14 07:00:00 -2 5 Norte 10 Norte 0 -- -- 99
2018-01-14 06:00:00 -1.7 3 Nordeste 9 Nordeste 0 -- -- 99
2018-01-14 05:00:00 -1.5 2 Nordeste 9 Nordeste 0 -- -- 99
2018-01-14 04:00:00 -1.2 3 Norte 8 Noroeste 0 -- -- 99
2018-01-14 03:00:00 -1.1 6 Noroeste 11 Noroeste 0 -- -- 99
2018-01-14 02:00:00 -0.7 5 Oeste 11 Norte 0 -- -- 99
2018-01-14 01:00:00 -0.5 5 Norte 9 Norte 0 -- -- 98
2018-01-14 00:00:00 -0.2 2 Nordeste 10 Norte 0 -- -- 98
2018-01-13 23:00:00 0 6 Noroeste 9 Noroeste 0 -- -- 98
2018-01-13 22:00:00 0.2 3 Noroeste 12 Oeste 0 -- -- 99
2018-01-13 21:00:00 -0.1 0 Calma 6 Noroeste 0 -- -- 99
2018-01-13 20:00:00 0.1 0 Calma 4 Sur 0.2 -- -- 98
2018-01-13 19:00:00 0.2 0 Calma 6 Noroeste 0.4 -- -- 98
2018-01-13 18:00:00 0.3 3 Oeste 6 Oeste 0.4 -- -- 98
2018-01-13 17:00:00 0.6 3 Oeste 5 Oeste 0.4 -- -- 98
2018-01-13 16:00:00 0.7 0 Calma 4 Norte 0.8 -- -- 98
2018-01-13 15:00:00 0.6 2 Sudoeste 12 Norte 0.8 -- -- 97
2018-01-13 14:00:00 0.9 4 Nordeste 7 Nordeste 0.8 -- -- 97
2018-01-13 13:00:00 0.8 2 Sudoeste 8 Noroeste 1 -- -- 97
2018-01-13 12:00:00 0.6 3 Oeste 12 Norte 0.8 -- -- 97
2018-01-13 11:00:00 0.9 7 Norte 12 Noroeste 0 -- -- 98
2018-01-13 10:00:00 0.3 6 Noroeste 14 Noroeste 0 -- -- 98
2018-01-13 09:00:00 0 9 Noroeste 17 Noroeste 0 -- -- 99
2018-01-13 08:00:00 -0.7 7 Oeste 13 Noroeste 0 -- -- 99
2018-01-13 07:00:00 -0.6 5 Oeste 9 Oeste 0 -- -- 99
2018-01-13 06:00:00 -1 4 Sudoeste 8 Sudoeste 0 -- -- 98
2018-01-13 05:00:00 -0.8 3 Noroeste 13 Noroeste 0 -- -- 98
2018-01-13 04:00:00 -0.9 5 Noroeste 19 Noroeste 0 -- -- 98
2018-01-13 03:00:00 -1 12 Noroeste 21 Noroeste 0 -- -- 96
2018-01-13 02:00:00 -0.5 12 Noroeste 20 Noroeste 0 -- -- 94
2018-01-13 01:00:00 0.7 9 Noroeste 18 Norte 0 -- -- 90
2018-01-13 00:00:00 0.2 11 Noroeste 18 Noroeste 0 -- -- 97
2018-01-12 23:00:00 -0.8 2 Sudeste 8 Oeste 0 -- -- 96
2018-01-12 22:00:00 -0.3 3 Noroeste 14 Noroeste 0 -- -- 96
2018-01-12 21:00:00 0.1 4 Oeste 12 Norte 0 -- -- 96
2018-01-12 20:00:00 0.2 8 Norte 21 Norte 0 -- -- 98
2018-01-12 19:00:00 -0.1 4 Oeste 15 Noroeste 0 -- -- 98
2018-01-12 18:00:00 -0.3 6 Oeste 20 Oeste 0 -- -- 97
2018-01-12 17:00:00 0.1 11 Noroeste 20 Noroeste 0 -- -- 95
2018-01-12 16:00:00 0.4 10 Noroeste 19 Noroeste 0 -- -- 97
2018-01-12 15:00:00 0.3 14 Noroeste 18 Noroeste 0 -- -- 94
2018-01-12 14:00:00 0.1 10 Oeste 17 Oeste 0 -- -- 96
2018-01-12 13:00:00 0.2 6 Noroeste 14 Oeste 0 -- -- 97
2018-01-12 12:00:00 -0.8 6 Oeste 14 Oeste 0 -- -- 97
2018-01-12 11:00:00 -0.1 7 Oeste 15 Oeste 0 -- -- 90
2018-01-12 10:00:00 -2 5 Sudeste 8 Sur 0 -- -- 96
2018-01-12 09:00:00 -4.2 0 Calma 11 Norte 0 -- -- 96
2018-01-12 08:00:00 -4.5 4 Nordeste 8 Nordeste 0 -- -- 96
2018-01-12 07:00:00 -4.2 0 Calma 15 Este 0 -- -- 95
2018-01-12 06:00:00 -3.8 0 Calma 4 Norte 0 -- -- 95
2018-01-12 05:00:00 -3.1 2 Nordeste 13 Este 0 -- -- 95
2018-01-12 04:00:00 -2.3 5 Este 11 Este 0 -- -- 95
2018-01-12 03:00:00 -2 2 Nordeste 13 Este 0 -- -- 93
2018-01-12 02:00:00 -0.6 7 Este 18 Oeste 0 -- -- 91
2018-01-12 01:00:00 0.3 6 Noroeste 14 Oeste 0 -- -- 90
2018-01-12 00:00:00 1 3 Sudoeste 13 Sur 0 -- -- 87
2018-01-11 23:00:00 1.3 5 Sur 10 Sur 0 -- -- 87
2018-01-11 22:00:00 1 0 Calma 9 Sudoeste 0 -- -- 86
2018-01-11 21:00:00 1.3 4 Sur 9 Sur 0 -- -- 84
2018-01-11 20:00:00 2.9 3 Sur 14 Sudeste 0 -- -- 77
2018-01-11 19:00:00 5.6 5 Nordeste 23 Norte 0 -- -- 67
2018-01-11 18:00:00 5.7 6 Norte 14 Norte 0 -- -- 67
2018-01-11 17:00:00 8 5 Nordeste 33 Noroeste 0 -- -- 56
2018-01-11 16:00:00 7.8 15 Norte 26 Norte 0 -- -- 55
2018-01-11 15:00:00 7.3 10 Norte 37 Norte 0 -- -- 54
2018-01-11 14:00:00 7 9 Norte 22 Norte 0 -- -- 56
2018-01-11 13:00:00 5.9 4 Noroeste 15 Noroeste 0 -- -- 66
2018-01-11 12:00:00 3.9 11 Oeste 19 Noroeste 0 -- -- 77
2018-01-11 11:00:00 2.3 9 Oeste 14 Oeste 0 -- -- 85
2018-01-11 10:00:00 -0.1 2 Sur 6 Este 0 -- -- 93
2018-01-11 09:00:00 -1.2 3 Sur 17 Noroeste 0 -- -- 94
2018-01-11 08:00:00 -1.2 7 Noroeste 14 Noroeste 0 -- -- 96
2018-01-11 07:00:00 -1.8 0 Calma 5 Sudeste 0 -- -- 94
2018-01-11 06:00:00 -0.5 3 Norte 18 Noroeste 0 -- -- 91
2018-01-11 05:00:00 0.3 6 Noroeste 17 Noroeste 0 -- -- 90
2018-01-11 04:00:00 0.9 11 Norte 33 Norte 0 -- -- 88
2018-01-11 03:00:00 0.8 17 Norte 31 Norte 0 -- -- 90
2018-01-11 02:00:00 1 13 Norte 26 Norte 0 -- -- 93
2018-01-11 01:00:00 0.8 17 Norte 30 Norte 0 -- -- 89
2018-01-11 00:00:00 0.2 5 Noroeste 22 Norte 0 -- -- 90
2018-01-10 23:00:00 0.6 17 Noroeste 28 Noroeste 0 -- -- 90
2018-01-10 22:00:00 1 13 Noroeste 21 Norte 0 -- -- 88
2018-01-10 21:00:00 1.4 5 Noroeste 24 Noroeste 0 -- -- 89
2018-01-10 20:00:00 2.2 15 Norte 30 Norte 0 -- -- 88
2018-01-10 19:00:00 2.8 11 Norte 27 Norte 0 -- -- 88
2018-01-10 18:00:00 3.8 19 Norte 34 Norte 0 -- -- 85
2018-01-10 17:00:00 4.7 17 Norte 40 Norte 0 -- -- 87
2018-01-10 16:00:00 5.3 18 Norte 39 Norte 0 -- -- 92
2018-01-10 15:00:00 4.6 15 Norte 37 Norte 1 -- -- 95
2018-01-10 14:00:00 3.2 6 Norte 20 Norte 0.4 -- -- 99
2018-01-10 13:00:00 2 13 Norte 23 Norte 0 -- -- 97
2018-01-10 12:00:00 2.3 13 Norte 30 Norte 0 -- -- 94
2018-01-10 11:00:00 2.8 15 Norte 26 Noroeste 0 -- -- 92
2018-01-10 10:00:00 1.5 4 Noroeste 10 Sudoeste 0 -- -- 98
2018-01-10 09:00:00 1.3 5 Noroeste 20 Norte 0 -- -- 98
2018-01-10 08:00:00 1.8 8 Noroeste 17 Noroeste 0 -- -- 99
2018-01-10 07:00:00 1.6 5 Noroeste 18 Norte 0 -- -- 99
2018-01-10 06:00:00 1.7 8 Noroeste 14 Norte 0 -- -- 99
2018-01-10 05:00:00 1.2 3 Oeste 8 Sur 0 -- -- 99
2018-01-10 04:00:00 1.2 3 Sudoeste 12 Norte 0 -- -- 99
2018-01-10 03:00:00 1.2 5 Norte 15 Noroeste 0 -- -- 99
2018-01-10 02:00:00 1 2 Norte 6 Norte 0 -- -- 99
2018-01-10 01:00:00 0.7 2 Noroeste 8 Noroeste 0 -- -- 99
2018-01-10 00:00:00 0.6 3 Oeste 9 Sudeste 0 -- -- 99
2018-01-09 23:00:00 0.5 4 Oeste 9 Oeste 0 -- -- 99
2018-01-09 22:00:00 0.3 4 Sur 6 Sudoeste 0 -- -- 98
2018-01-09 21:00:00 0.4 2 Sudeste 13 Noroeste 0.2 -- -- 98
2018-01-09 20:00:00 0.2 5 Noroeste 16 Noroeste 0.2 -- -- 98
2018-01-09 19:00:00 0.2 5 Oeste 11 Oeste 0.4 -- -- 97
2018-01-09 18:00:00 0.2 4 Oeste 10 Noroeste 0.4 -- -- 97
2018-01-09 17:00:00 0.5 3 Oeste 26 Noroeste 0.2 -- -- 96
2018-01-09 16:00:00 0.5 10 Norte 18 Norte 0.4 -- -- 96
2018-01-09 15:00:00 0 8 Norte 21 Oeste 0.2 -- -- 95
2018-01-09 14:00:00 -0.4 9 Noroeste 25 Noroeste 0 -- -- 95
2018-01-09 13:00:00 -0.5 7 Noroeste 25 Norte 0 -- -- 93
2018-01-09 12:00:00 -1.4 12 Norte 21 Norte 0 -- -- 93
2018-01-09 11:00:00 -2.1 8 Noroeste 25 Oeste 0 -- -- 92
2018-01-09 10:00:00 -1.8 10 Noroeste 25 Noroeste 0 -- -- 94
2018-01-09 09:00:00 -1.3 6 Oeste 19 Oeste 0 -- -- 95
2018-01-09 08:00:00 -0.7 8 Noroeste 26 Noroeste 0 -- -- 94
2018-01-09 07:00:00 -0.9 14 Norte 29 Noroeste 0 -- -- 96
2018-01-09 06:00:00 -0.8 13 Noroeste 24 Noroeste 0 -- -- 96
2018-01-09 05:00:00 -0.6 7 Norte 18 Oeste 0 -- -- 95
2018-01-09 04:00:00 -0.8 8 Noroeste 19 Noroeste 0 -- -- 95
2018-01-09 03:00:00 -0.7 11 Noroeste 22 Norte 0 -- -- 95
2018-01-09 02:00:00 -0.9 8 Noroeste 15 Noroeste 0 -- -- 94
2018-01-09 01:00:00 -0.8 8 Oeste 17 Norte 0 -- -- 91
2018-01-09 00:00:00 0.2 12 Noroeste 17 Norte 0 -- -- 89
2018-01-08 23:00:00 0.4 6 Norte 14 Noroeste 0 -- -- 87
2018-01-08 22:00:00 1.2 9 Noroeste 22 Norte 0 -- -- 83
2018-01-08 21:00:00 0.9 4 Oeste 14 Noroeste 0 -- -- 83
2018-01-08 20:00:00 1.7 7 Oeste 17 Oeste 0 -- -- 82
2018-01-08 19:00:00 2.9 5 Noroeste 15 Noroeste 0 -- -- 76
2018-01-08 18:00:00 4.3 5 Sudoeste 20 Oeste 0 -- -- 66
2018-01-08 17:00:00 6.8 11 Oeste 22 Oeste 0 -- -- 59
2018-01-08 16:00:00 7.6 10 Oeste 20 Oeste 0 -- -- 60
2018-01-08 15:00:00 7.4 12 Oeste 22 Oeste 0 -- -- 61
2018-01-08 14:00:00 6.9 13 Noroeste 18 Noroeste 0 -- -- 59
2018-01-08 13:00:00 5.3 12 Noroeste 18 Norte 0 -- -- 68
2018-01-08 12:00:00 3 3 Noroeste 10 Norte 0 -- -- 80
2018-01-08 11:00:00 -0.2 5 Norte 7 Norte 0 -- -- 94
2018-01-08 10:00:00 -2.8 0 Calma 15 Este 0 -- -- 96
2018-01-08 09:00:00 -3.1 0 Calma 7 Este 0 -- -- 97
2018-01-08 08:00:00 -3 3 Sudeste 4 Sudeste 0 -- -- 97
2018-01-08 07:00:00 -2.8 2 Sudeste 8 Este 0 -- -- 97
2018-01-08 06:00:00 -2.5 0 Calma 5 Este 0 -- -- 97
2018-01-08 05:00:00 -2.4 0 Calma 3 Este 0 -- -- 97
2018-01-08 04:00:00 -2.5 0 Calma 3 Sudeste 0 -- -- 97
2018-01-08 03:00:00 -2.6 0 Calma 4 Noroeste 0 -- -- 97
2018-01-08 02:00:00 -2.4 2 Nordeste 5 Noroeste 0 -- -- 97
2018-01-08 01:00:00 -2.2 0 Calma 8 Este 0 -- -- 96
2018-01-08 00:00:00 -1.6 3 Este 11 Sudeste 0 -- -- 96
2018-01-07 23:00:00 -1 4 Este 17 Este 0 -- -- 96
2018-01-07 22:00:00 -0.4 0 Calma 7 Sudeste 0 -- -- 93
2018-01-07 21:00:00 1.2 2 Sudeste 16 Sudoeste 0 -- -- 91
2018-01-07 20:00:00 2.2 11 Sudoeste 21 Sur 0 -- -- 88
2018-01-07 19:00:00 3.7 9 Sur 17 Sur 0 -- -- 87
2018-01-07 18:00:00 4 10 Sur 18 Sudeste 0 -- -- 88
2018-01-07 17:00:00 4.5 8 Sur 23 Sur 0 -- -- 88
2018-01-07 16:00:00 4.8 10 Sur 34 Sur 0 -- -- 88
2018-01-07 15:00:00 4.8 14 Sur 28 Sur 0 -- -- 86
2018-01-07 14:00:00 5.1 11 Sur 32 Sur 0 -- -- 79
2018-01-07 13:00:00 6 12 Sur 24 Sudeste 0 -- -- 72
2018-01-07 12:00:00 5.3 13 Sur 23 Este 0 -- -- 74
2018-01-07 11:00:00 5.3 12 Sudeste 28 Sur 0 -- -- 68
2018-01-07 10:00:00 4.1 8 Sur 25 Sur 0 -- -- 75
2018-01-07 09:00:00 3.3 8 Sudeste 28 Sudeste 1.2 -- -- 76
2018-01-07 08:00:00 2.7 8 Sudeste 32 Sudeste 0 -- -- 80
2018-01-07 07:00:00 2.4 14 Sudeste 48 Este 0 -- -- 82
2018-01-07 06:00:00 1.6 13 Sudeste 42 Sudeste 0 -- -- 87
2018-01-07 05:00:00 1.3 11 Sudeste 27 Este 0.2 -- -- 92
2018-01-07 04:00:00 1 10 Sudeste 36 Este 0.2 -- -- 93
2018-01-07 03:00:00 2 16 Sudeste 38 Sudeste 0 -- -- 85
2018-01-07 02:00:00 2.4 17 Sudeste 40 Este 0 -- -- 76
2018-01-07 01:00:00 2.2 14 Sudeste 49 Este 0 -- -- 81
2018-01-07 00:00:00 1.7 19 Sudeste 45 Sudeste 0 -- -- 85
2018-01-06 23:00:00 1.4 17 Sudeste 40 Sudeste 0 -- -- 87
2018-01-06 22:00:00 1.3 10 Sudeste 27 Este 0 -- -- 91
2018-01-06 21:00:00 1.1 16 Sudeste 30 Este 0 -- -- 91
2018-01-06 20:00:00 1.5 9 Sudeste 30 Sudeste 0 -- -- 85
2018-01-06 19:00:00 0.7 10 Sudeste 31 Sudeste 0 -- -- 91
2018-01-06 18:00:00 0.7 12 Sur 28 Sudeste 0 -- -- 91
2018-01-06 17:00:00 2.5 11 Sur 23 Sudeste 0 -- -- 79
2018-01-06 16:00:00 2.8 8 Sudeste 19 Sudeste 0 -- -- 74
2018-01-06 15:00:00 2.9 4 Nordeste 22 Este 0 -- -- 79
2018-01-06 14:00:00 2.6 5 Norte 13 Nordeste 0 -- -- 84
2018-01-06 13:00:00 1.8 2 Norte 7 Norte 0 -- -- 86
2018-01-06 12:00:00 1.3 3 Norte 5 Norte 0 -- -- 94
2018-01-06 11:00:00 0.4 0 Calma 4 Este 0.2 -- -- 95
2018-01-06 10:00:00 0 2 Sudeste 13 Sudeste 0.4 -- -- 95
2018-01-06 09:00:00 0.4 2 Sudeste 6 Sur 0 -- -- 92
2018-01-06 08:00:00 0.6 4 Sur 16 Sur 0 -- -- 86
2018-01-06 07:00:00 0.7 5 Sur 16 Sur 0 -- -- 91
2018-01-06 06:00:00 0.8 8 Sur 16 Sur 0 -- -- 93
2018-01-06 05:00:00 0.8 5 Sur 21 Sur 0 -- -- 95
2018-01-06 04:00:00 1 11 Sur 23 Sur 0 -- -- 94
2018-01-06 03:00:00 1.5 11 Sur 23 Sur 0 -- -- 93
2018-01-06 02:00:00 1.6 10 Sur 21 Sur 0 -- -- 94
2018-01-06 01:00:00 1.9 10 Sur 28 Sudeste 0 -- -- 93
2018-01-06 00:00:00 2.3 17 Sur 27 Sudeste 0 -- -- 93
2018-01-05 23:00:00 3.1 10 Sur 24 Sur 0 -- -- 93
2018-01-05 22:00:00 3.4 11 Sur 28 Sur 0 -- -- 93
2018-01-05 21:00:00 3.7 14 Sur 24 Sur 0 -- -- 92
2018-01-05 20:00:00 4.1 16 Sur 24 Sur 0 -- -- 91
2018-01-05 19:00:00 5.9 3 Oeste 12 Noroeste 0 -- -- 90
2018-01-05 18:00:00 6.6 6 Norte 18 Norte 0 -- -- 85
2018-01-05 17:00:00 7 9 Norte 24 Noroeste 0 -- -- 82
2018-01-05 16:00:00 7.3 10 Norte 26 Noroeste 0 -- -- 81
2018-01-05 15:00:00 7.9 6 Norte 26 Norte 0 -- -- 82
2018-01-05 14:00:00 8.3 9 Noroeste 21 Noroeste 0 -- -- 88
2018-01-05 13:00:00 7.8 9 Noroeste 20 Noroeste 0 -- -- 92
2018-01-05 12:00:00 7.7 10 Noroeste 40 Noroeste 0.2 -- -- 93
2018-01-05 11:00:00 7.3 16 Noroeste 40 Oeste 0.4 -- -- 94
2018-01-05 10:00:00 6.8 10 Noroeste 32 Noroeste 0.6 -- -- 95
2018-01-05 09:00:00 6.7 11 Noroeste 33 Noroeste 0.8 -- -- 95
2018-01-05 08:00:00 6.6 9 Norte 30 Oeste 0.2 -- -- 96
2018-01-05 07:00:00 6.8 15 Norte 34 Norte 0 -- -- 95
2018-01-05 06:00:00 6.9 18 Norte 49 Noroeste 0 -- -- 93
2018-01-05 05:00:00 7.4 21 Norte 44 Norte 0 -- -- 88
2018-01-05 04:00:00 7.7 16 Norte 47 Noroeste 0 -- -- 88
2018-01-05 03:00:00 7.9 11 Norte 36 Norte 0 -- -- 88
2018-01-05 02:00:00 7.9 13 Norte 28 Noroeste 0 -- -- 88
2018-01-05 01:00:00 8 16 Norte 32 Noroeste 0 -- -- 86
2018-01-05 00:00:00 8.5 13 Noroeste 28 Noroeste 0 -- -- 84
2018-01-04 23:00:00 8.8 14 Noroeste 31 Noroeste 0 -- -- 87
2018-01-04 22:00:00 8.3 12 Noroeste 18 Norte 0 -- -- 89
2018-01-04 21:00:00 8.8 10 Norte 28 Noroeste 0 -- -- 85
2018-01-04 20:00:00 9.1 6 Sudoeste 20 Sudoeste 0 -- -- 83
2018-01-04 19:00:00 10 7 Oeste 28 Norte 0 -- -- 80
2018-01-04 18:00:00 10.9 6 Norte 25 Noroeste 0 -- -- 73
2018-01-04 17:00:00 11.3 8 Noroeste 33 Noroeste 0 -- -- 73
2018-01-04 16:00:00 11.9 14 Norte 36 Norte 0 -- -- 67
2018-01-04 15:00:00 13.2 13 Noroeste 39 Norte 0 -- -- 63
2018-01-04 14:00:00 12.2 13 Noroeste 37 Noroeste 0 -- -- 70
2018-01-04 13:00:00 11.3 18 Norte 44 Norte 0 -- -- 71
2018-01-04 12:00:00 10.2 15 Norte 29 Norte 0 -- -- 79
2018-01-04 11:00:00 9.8 27 Noroeste 44 Norte 0 -- -- 83
2018-01-04 10:00:00 9.7 19 Norte 38 Noroeste 0 -- -- 85
2018-01-04 09:00:00 9.6 19 Noroeste 28 Norte 0 -- -- 86
2018-01-04 08:00:00 9.9 19 Norte 42 Norte 0 -- -- 87
2018-01-04 07:00:00 10.1 21 Norte 40 Norte 0 -- -- 88
2018-01-04 06:00:00 9.9 20 Norte 43 Norte 0 -- -- 91
2018-01-04 05:00:00 10.1 14 Norte 30 Norte 0 -- -- 89
2018-01-04 04:00:00 10.3 15 Norte 30 Noroeste 0 -- -- 88
2018-01-04 03:00:00 10.6 19 Norte 31 Noroeste 0 -- -- 88
2018-01-04 02:00:00 11 12 Norte 33 Norte 0 -- -- 88
2018-01-04 01:00:00 10.6 17 Norte 30 Nordeste 0 -- -- 88
2018-01-04 00:00:00 10.7 5 Norte 18 Norte 0 -- -- 90
2018-01-03 23:00:00 10.4 4 Sudeste 23 Norte 0 -- -- 90
2018-01-03 22:00:00 10.8 2 Sudoeste 19 Norte 0 -- -- 89
2018-01-03 21:00:00 11.3 12 Norte 28 Norte 0 -- -- 88
2018-01-03 20:00:00 11.9 16 Norte 29 Norte 0 -- -- 86
2018-01-03 19:00:00 12.4 13 Norte 23 Norte 0 -- -- 84
2018-01-03 18:00:00 13.3 12 Norte 26 Norte 0 -- -- 80
2018-01-03 17:00:00 13.8 11 Norte 24 Norte 0 -- -- 82
2018-01-03 16:00:00 13.8 13 Noroeste 30 Noroeste 0 -- -- 83
2018-01-03 15:00:00 13.5 10 Norte 25 Noroeste 0 -- -- 84
2018-01-03 14:00:00 12.3 16 Norte 31 Norte 0 -- -- 89
2018-01-03 13:00:00 11.8 18 Norte 39 Norte 0 -- -- 90
2018-01-03 12:00:00 12 19 Norte 37 Norte 0 -- -- 88
2018-01-03 11:00:00 11.4 6 Este 29 Norte 0 -- -- 91
2018-01-03 10:00:00 10.5 13 Norte 28 Norte 0 -- -- 94
2018-01-03 09:00:00 10.3 5 Sudeste 18 Nordeste 0 -- -- 95
2018-01-03 08:00:00 10.3 11 Norte 21 Norte 0 -- -- 95
2018-01-03 07:00:00 10.3 9 Norte 29 Norte 0 -- -- 95
2018-01-03 06:00:00 10.4 10 Norte 21 Norte 0 -- -- 95
2018-01-03 05:00:00 10.2 5 Noroeste 22 Oeste 0 -- -- 97
2018-01-03 04:00:00 10.2 6 Norte 23 Noroeste 0 -- -- 96
2018-01-03 03:00:00 10.3 9 Norte 22 Noroeste 0 -- -- 95
2018-01-03 02:00:00 10.2 7 Noroeste 18 Noroeste 0 -- -- 95
2018-01-03 01:00:00 10.1 12 Norte 27 Noroeste 0 -- -- 95
2018-01-03 00:00:00 9.6 10 Noroeste 30 Noroeste 0 -- -- 97
2018-01-02 23:00:00 9.9 13 Norte 26 Noroeste 0 -- -- 95
2018-01-02 22:00:00 10.6 7 Noroeste 32 Norte 0 -- -- 92
2018-01-02 21:00:00 10.8 20 Norte 31 Norte 0 -- -- 90
2018-01-02 20:00:00 10.5 9 Norte 17 Noroeste 0 -- -- 91
2018-01-02 19:00:00 10 0 Calma 15 Noroeste 0 -- -- 91
2018-01-02 18:00:00 10 15 Norte 31 Norte 0 -- -- 90
2018-01-02 17:00:00 9.9 18 Norte 39 Norte 0 -- -- 89
2018-01-02 16:00:00 10 19 Norte 35 Norte 0 -- -- 86
2018-01-02 15:00:00 10.6 22 Norte 37 Norte 0 -- -- 82
2018-01-02 14:00:00 10.2 16 Norte 30 Norte 0.2 -- -- 84
2018-01-02 13:00:00 8.4 15 Norte 32 Norte 0 -- -- 90
2018-01-02 12:00:00 8 18 Norte 35 Norte 0 -- -- 90
2018-01-02 11:00:00 7 23 Norte 37 Norte 0.4 -- -- 92
2018-01-02 10:00:00 6.4 21 Norte 34 Norte 0.4 -- -- 91
2018-01-02 09:00:00 6.2 10 Norte 23 Norte 0 -- -- 90
2018-01-02 08:00:00 6 6 Nordeste 23 Nordeste 0 -- -- 91
2018-01-02 07:00:00 5.9 11 Norte 26 Norte 0 -- -- 91
2018-01-02 06:00:00 5.9 15 Norte 30 Norte 0 -- -- 90
2018-01-02 05:00:00 5.6 6 Noroeste 21 Oeste 0 -- -- 90
2018-01-02 04:00:00 5.8 5 Sudoeste 22 Oeste 0 -- -- 91
2018-01-02 03:00:00 6.9 8 Noroeste 18 Norte 0 -- -- 89
2018-01-02 02:00:00 7.1 4 Norte 21 Norte 0 -- -- 93
2018-01-02 01:00:00 7.4 6 Nordeste 16 Norte 0 -- -- 94
2018-01-02 00:00:00 7.1 3 Nordeste 15 Nordeste 0.2 -- -- 94
2018-01-01 23:00:00 7.3 3 Nordeste 20 Nordeste 0 -- -- 89
2018-01-01 22:00:00 7.3 6 Este 29 Noroeste 0 -- -- 87
2018-01-01 21:00:00 7.5 5 Norte 20 Noroeste 0 -- -- 84
2018-01-01 20:00:00 7.7 11 Noroeste 21 Noroeste 0 -- -- 85
2018-01-01 19:00:00 7.4 7 Oeste 15 Oeste 0 -- -- 86
2018-01-01 18:00:00 9 8 Norte 33 Norte 0 -- -- 78
2018-01-01 17:00:00 9.9 23 Norte 39 Norte 0 -- -- 75
2018-01-01 16:00:00 9.6 23 Norte 42 Norte 0 -- -- 78
2018-01-01 15:00:00 7.1 21 Norte 32 Norte 0 -- -- 88
2018-01-01 14:00:00 5.5 20 Norte 39 Norte 0 -- -- 91
2018-01-01 13:00:00 4.5 15 Norte 42 Norte 0.2 -- -- 93
2018-01-01 12:00:00 3.5 13 Norte 26 Nordeste 0 -- -- 96
2018-01-01 11:00:00 2.5 6 Noroeste 27 Norte 0 -- -- 96
2018-01-01 10:00:00 2.1 14 Noroeste 27 Norte 0 -- -- 96
2018-01-01 09:00:00 1.6 13 Noroeste 24 Noroeste 0 -- -- 94
2018-01-01 08:00:00 1.6 14 Norte 27 Norte 0 -- -- 92
2018-01-01 07:00:00 1.2 10 Noroeste 22 Norte 0 -- -- 91
2018-01-01 06:00:00 0.9 8 Noroeste 21 Noroeste 0 -- -- 89
2018-01-01 05:00:00 0.6 17 Noroeste 28 Noroeste 0 -- -- 90
2018-01-01 04:00:00 -0.1 2 Sudeste 17 Norte 0 -- -- 89
2018-01-01 03:00:00 0.8 6 Noroeste 17 Noroeste 0 -- -- 88
2018-01-01 02:00:00 0.9 7 Oeste 15 Oeste 0 -- -- 87
2018-01-01 01:00:00 1.4 4 Oeste 16 Noroeste 0 -- -- 80
2018-01-01 00:00:00 1.7 6 Noroeste 22 Noroeste 0 -- -- 78
2017-12-31 23:00:00 2 10 Norte 32 Norte 0 -- -- 74
2017-12-31 22:00:00 3 14 Norte 32 Norte 0 -- -- 70
2017-12-31 21:00:00 4 23 Norte 40 Norte 0 -- -- 64
2017-12-31 20:00:00 2.8 8 Norte 17 Norte 0 -- -- 77
2017-12-31 19:00:00 4.8 3 Nordeste 33 Norte 0 -- -- 75
2017-12-31 18:00:00 5.9 15 Norte 33 Norte 0 -- -- 83
2017-12-31 17:00:00 6 10 Noroeste 50 Norte 0 -- -- 80
2017-12-31 16:00:00 6.5 12 Norte 36 Oeste 0 -- -- 85
2017-12-31 15:00:00 7.8 15 Norte 35 Norte 0.4 -- -- 92
2017-12-31 14:00:00 7.9 14 Noroeste 42 Noroeste 0 -- -- 88
2017-12-31 13:00:00 7.8 12 Noroeste 43 Oeste 0 -- -- 88
2017-12-31 12:00:00 7.8 14 Noroeste 40 Norte 0 -- -- 89
2017-12-31 11:00:00 8 17 Noroeste 40 Norte 0 -- -- 85
2017-12-31 10:00:00 7.8 15 Norte 39 Norte 0 -- -- 86
2017-12-31 09:00:00 7.7 16 Norte 36 Norte 0 -- -- 87
2017-12-31 08:00:00 7.8 11 Norte 31 Oeste 0 -- -- 87
2017-12-31 07:00:00 7.6 11 Noroeste 27 Norte 0 -- -- 88
2017-12-31 06:00:00 7.8 12 Norte 32 Norte 0 -- -- 84
2017-12-31 05:00:00 7.6 9 Norte 20 Noroeste 0 -- -- 86
2017-12-31 04:00:00 7.3 7 Noroeste 17 Oeste 0 -- -- 88
2017-12-31 03:00:00 7.4 7 Norte 15 Noroeste 0 -- -- 90
2017-12-31 02:00:00 7.4 9 Norte 20 Norte 0 -- -- 90
2017-12-31 01:00:00 7.4 12 Norte 23 Norte 0 -- -- 90